Terminal Aerodrome Forecast
Issued by NWS

Home | Current Version | Previous Version | Graphics & Text | Print | Product List | Glossary On
Versions: 1 2 3 4 5 6 7 8 9 10 11 12 13
000
FTUS45 KGGW 222329
TAFSDY
TAF
KSDY 222329Z 2300/2324 VRB06KT P6SM OVC025
     FM231000 04004KT 3SM BR OVC010
     FM231400 03005KT P6SM SCT015 OVC025=

USA.gov is the U.S. government's official web portal to all federal, state and local government web resources and services.